Wilcox, Pennsylvania
Current Conditions -  °F | °C
As of 4:53 PM on Wednesday 28 Jan 2015 (Local Time) from KBFD Reporting Station
Clear Clear  
Wind Chill: 16°   Ceiling: Unl
Heat Index: 23°   Visibility: 10mi
Dew Point: -3°   Wind: 6mph
Humidity: 32%   Direction: 320°NW
Pressure: 30.19"   Gusts: NA
Location:  41.58°N, 78.69°W
Report Text: KBFD 282153Z AUTO 32005KT 10SM CLR M05/M19 A3019 RMK AO2 SLP259 T10501194
Loading
Personal Weather Stations






























Interactive Weather Map New forecast layout! Learn more

10-Day Weather Forecast

Advertisements
Track Severe Weather on mobile